sensor_id;sensor_type;location;lat;lon;timestamp;pressure;altitude;pressure_sealevel;temperature;humidity
71043;BME280;58696;52.134;5.500;2023-05-24T00:01:26;102610.59;;;7.02;84.49
71043;BME280;58696;52.134;5.500;2023-05-24T00:03:58;102615.38;;;7.07;84.54
71043;BME280;58696;52.134;5.500;2023-05-24T00:06:26;102613.16;;;7.02;84.58
71043;BME280;58696;52.134;5.500;2023-05-24T00:08:55;102616.50;;;7.03;84.90
71043;BME280;58696;52.134;5.500;2023-05-24T00:11:24;102625.22;;;7.00;84.62
71043;BME280;58696;52.134;5.500;2023-05-24T00:13:53;102625.66;;;6.94;84.87
71043;BME280;58696;52.134;5.500;2023-05-24T00:16:21;102608.50;;;6.96;84.83
71043;BME280;58696;52.134;5.500;2023-05-24T00:18:53;102610.81;;;6.99;84.99
71043;BME280;58696;52.134;5.500;2023-05-24T00:21:20;102605.09;;;6.96;84.60
71043;BME280;58696;52.134;5.500;2023-05-24T00:23:51;102607.22;;;6.91;85.31
71043;BME280;58696;52.134;5.500;2023-05-24T00:26:20;102598.34;;;6.83;84.94
71043;BME280;58696;52.134;5.500;2023-05-24T00:28:47;102595.44;;;6.77;85.30
71043;BME280;58696;52.134;5.500;2023-05-24T00:31:18;102598.13;;;6.75;85.52
71043;BME280;58696;52.134;5.500;2023-05-24T00:33:45;102603.78;;;6.68;85.13
71043;BME280;58696;52.134;5.500;2023-05-24T00:36:16;102593.06;;;6.63;85.76
71043;BME280;58696;52.134;5.500;2023-05-24T00:38:44;102593.19;;;6.61;85.70
71043;BME280;58696;52.134;5.500;2023-05-24T00:41:11;102596.09;;;6.56;85.86
71043;BME280;58696;52.134;5.500;2023-05-24T00:43:40;102592.16;;;6.52;86.04
71043;BME280;58696;52.134;5.500;2023-05-24T00:46:26;102589.00;;;6.49;86.20
71043;BME280;58696;52.134;5.500;2023-05-24T00:48:54;102587.47;;;6.46;86.37
71043;BME280;58696;52.134;5.500;2023-05-24T00:51:22;102574.00;;;6.44;86.29
71043;BME280;58696;52.134;5.500;2023-05-24T00:53:53;102573.31;;;6.42;86.51
71043;BME280;58696;52.134;5.500;2023-05-24T00:56:20;102576.66;;;6.43;86.66
71043;BME280;58696;52.134;5.500;2023-05-24T00:58:47;102577.34;;;6.45;86.77
71043;BME280;58696;52.134;5.500;2023-05-24T01:01:16;102572.94;;;6.47;86.54
71043;BME280;58696;52.134;5.500;2023-05-24T01:03:42;102575.50;;;6.47;86.98
71043;BME280;58696;52.134;5.500;2023-05-24T01:06:12;102578.66;;;6.50;87.19
71043;BME280;58696;52.134;5.500;2023-05-24T01:08:47;102578.31;;;6.55;87.11
71043;BME280;58696;52.134;5.500;2023-05-24T01:16:43;102590.50;;;6.51;87.03
71043;BME280;58696;52.134;5.500;2023-05-24T01:19:53;102587.13;;;6.51;87.07
71043;BME280;58696;52.134;5.500;2023-05-24T01:25:15;102586.31;;;6.50;87.02
71043;BME280;58696;52.134;5.500;2023-05-24T01:27:46;102583.88;;;6.49;86.97
71043;BME280;58696;52.134;5.500;2023-05-24T01:30:12;102583.28;;;6.45;87.15
71043;BME280;58696;52.134;5.500;2023-05-24T01:32:39;102575.50;;;6.47;87.09
71043;BME280;58696;52.134;5.500;2023-05-24T01:35:11;102582.25;;;6.48;87.12
71043;BME280;58696;52.134;5.500;2023-05-24T01:37:43;102579.91;;;6.45;86.91
71043;BME280;58696;52.134;5.500;2023-05-24T01:40:13;102581.78;;;6.43;86.93
71043;BME280;58696;52.134;5.500;2023-05-24T01:42:54;102581.28;;;6.38;86.76
71043;BME280;58696;52.134;5.500;2023-05-24T01:45:30;102585.81;;;6.34;86.59
71043;BME280;58696;52.134;5.500;2023-05-24T01:48:13;102585.31;;;6.29;86.74
71043;BME280;58696;52.134;5.500;2023-05-24T01:50:47;102580.66;;;6.23;86.72
71043;BME280;58696;52.134;5.500;2023-05-24T01:53:18;102585.41;;;6.16;86.76
71043;BME280;58696;52.134;5.500;2023-05-24T01:55:48;102578.88;;;6.12;86.94
71043;BME280;58696;52.134;5.500;2023-05-24T01:58:18;102576.16;;;6.02;86.92
71043;BME280;58696;52.134;5.500;2023-05-24T02:00:46;102577.19;;;6.00;87.15
71043;BME280;58696;52.134;5.500;2023-05-24T02:03:15;102577.56;;;6.06;87.48
71043;BME280;58696;52.134;5.500;2023-05-24T02:05:44;102576.56;;;6.09;87.48
71043;BME280;58696;52.134;5.500;2023-05-24T02:08:11;102575.50;;;6.12;87.50
71043;BME280;58696;52.134;5.500;2023-05-24T02:10:39;102570.84;;;6.05;87.55
71043;BME280;58696;52.134;5.500;2023-05-24T02:13:09;102570.16;;;6.03;87.82
71043;BME280;58696;52.134;5.500;2023-05-24T02:15:37;102568.06;;;6.09;87.81
71043;BME280;58696;52.134;5.500;2023-05-24T02:18:07;102570.03;;;6.05;87.76
71043;BME280;58696;52.134;5.500;2023-05-24T02:20:36;102570.72;;;6.07;87.86
71043;BME280;58696;52.134;5.500;2023-05-24T02:23:03;102568.16;;;6.07;87.66
71043;BME280;58696;52.134;5.500;2023-05-24T02:25:32;102561.44;;;6.06;87.50
71043;BME280;58696;52.134;5.500;2023-05-24T02:27:59;102558.19;;;6.04;87.54
71043;BME280;58696;52.134;5.500;2023-05-24T02:30:27;102568.72;;;5.99;87.74
71043;BME280;58696;52.134;5.500;2023-05-24T02:32:56;102566.63;;;5.93;88.07
71043;BME280;58696;52.134;5.500;2023-05-24T02:35:23;102568.34;;;5.93;88.35
71043;BME280;58696;52.134;5.500;2023-05-24T02:37:50;102569.97;;;5.94;88.59
71043;BME280;58696;52.134;5.500;2023-05-24T02:40:24;102572.53;;;5.94;88.81
71043;BME280;58696;52.134;5.500;2023-05-24T02:42:53;102563.84;;;5.96;88.70
71043;BME280;58696;52.134;5.500;2023-05-24T02:45:22;102571.03;;;6.02;89.21
71043;BME280;58696;52.134;5.500;2023-05-24T02:47:53;102565.75;;;6.05;89.24
71043;BME280;58696;52.134;5.500;2023-05-24T02:50:19;102572.47;;;6.06;89.27
71043;BME280;58696;52.134;5.500;2023-05-24T02:52:50;102580.72;;;6.10;89.49
71043;BME280;58696;52.134;5.500;2023-05-24T02:55:22;102581.09;;;6.17;89.58
71043;BME280;58696;52.134;5.500;2023-05-24T02:57:52;102578.34;;;6.20;89.77
71043;BME280;58696;52.134;5.500;2023-05-24T03:00:21;102580.53;;;6.24;89.70
71043;BME280;58696;52.134;5.500;2023-05-24T03:02:48;102583.69;;;6.28;89.33
71043;BME280;58696;52.134;5.500;2023-05-24T03:05:18;102586.47;;;6.25;89.35
71043;BME280;58696;52.134;5.500;2023-05-24T03:07:46;102580.91;;;6.20;89.23
71043;BME280;58696;52.134;5.500;2023-05-24T03:10:15;102580.41;;;6.15;89.34
71043;BME280;58696;52.134;5.500;2023-05-24T03:12:42;102579.56;;;6.14;89.64
71043;BME280;58696;52.134;5.500;2023-05-24T03:15:09;102576.81;;;6.17;89.43
71043;BME280;58696;52.134;5.500;2023-05-24T03:17:38;102574.25;;;6.17;89.99
71043;BME280;58696;52.134;5.500;2023-05-24T03:20:07;102572.63;;;6.16;89.62
71043;BME280;58696;52.134;5.500;2023-05-24T03:22:37;102565.78;;;6.17;89.62
71043;BME280;58696;52.134;5.500;2023-05-24T03:25:04;102565.78;;;6.17;89.87
71043;BME280;58696;52.134;5.500;2023-05-24T03:27:35;102554.88;;;6.15;89.72
71043;BME280;58696;52.134;5.500;2023-05-24T03:30:04;102552.31;;;6.15;89.83
71043;BME280;58696;52.134;5.500;2023-05-24T03:32:32;102547.44;;;6.12;89.97
71043;BME280;58696;52.134;5.500;2023-05-24T03:34:58;102545.69;;;6.12;89.64
71043;BME280;58696;52.134;5.500;2023-05-24T03:37:29;102541.50;;;6.11;89.76
71043;BME280;58696;52.134;5.500;2023-05-24T03:40:00;102550.47;;;6.17;90.00
71043;BME280;58696;52.134;5.500;2023-05-24T03:42:27;102556.75;;;6.24;90.12
71043;BME280;58696;52.134;5.500;2023-05-24T03:44:53;102557.31;;;6.16;89.64
71043;BME280;58696;52.134;5.500;2023-05-24T03:47:20;102560.47;;;6.20;90.02
71043;BME280;58696;52.134;5.500;2023-05-24T03:49:46;102572.78;;;6.26;89.78
71043;BME280;58696;52.134;5.500;2023-05-24T03:52:15;102559.09;;;6.27;90.19
71043;BME280;58696;52.134;5.500;2023-05-24T03:54:42;102559.56;;;6.32;90.48
71043;BME280;58696;52.134;5.500;2023-05-24T03:57:08;102563.53;;;6.36;90.11
71043;BME280;58696;52.134;5.500;2023-05-24T03:59:37;102554.72;;;6.40;90.45
71043;BME280;58696;52.134;5.500;2023-05-24T04:02:09;102550.88;;;6.46;90.69
71043;BME280;58696;52.134;5.500;2023-05-24T04:04:36;102560.66;;;6.52;90.83
71043;BME280;58696;52.134;5.500;2023-05-24T04:07:02;102556.16;;;6.55;90.72
71043;BME280;58696;52.134;5.500;2023-05-24T04:09:31;102557.44;;;6.61;90.69
71043;BME280;58696;52.134;5.500;2023-05-24T04:11:58;102562.09;;;6.67;90.56
71043;BME280;58696;52.134;5.500;2023-05-24T04:14:24;102552.47;;;6.71;90.44
71043;BME280;58696;52.134;5.500;2023-05-24T04:16:56;102564.91;;;6.75;91.04
71043;BME280;58696;52.134;5.500;2023-05-24T04:19:23;102553.75;;;6.76;90.82
71043;BME280;58696;52.134;5.500;2023-05-24T04:21:49;102554.81;;;6.85;90.94
71043;BME280;58696;52.134;5.500;2023-05-24T04:24:16;102559.81;;;6.98;91.02
71043;BME280;58696;52.134;5.500;2023-05-24T04:26:47;102555.72;;;7.06;90.74
71043;BME280;58696;52.134;5.500;2023-05-24T04:29:14;102555.03;;;7.04;90.64
71043;BME280;58696;52.134;5.500;2023-05-24T04:31:45;102556.91;;;7.14;90.77
71043;BME280;58696;52.134;5.500;2023-05-24T04:34:14;102555.28;;;7.24;90.79
71043;BME280;58696;52.134;5.500;2023-05-24T04:36:40;102556.53;;;7.29;91.13
71043;BME280;58696;52.134;5.500;2023-05-24T04:39:09;102557.47;;;7.40;90.66
71043;BME280;58696;52.134;5.500;2023-05-24T04:41:38;102556.19;;;7.45;90.67
71043;BME280;58696;52.134;5.500;2023-05-24T04:44:07;102554.75;;;7.52;90.43
71043;BME280;58696;52.134;5.500;2023-05-24T04:46:36;102566.72;;;7.63;90.61
71043;BME280;58696;52.134;5.500;2023-05-24T04:49:02;102570.06;;;7.75;90.27
71043;BME280;58696;52.134;5.500;2023-05-24T04:51:31;102565.50;;;7.89;90.58
71043;BME280;58696;52.134;5.500;2023-05-24T04:53:58;102568.81;;;8.01;90.54
71043;BME280;58696;52.134;5.500;2023-05-24T04:56:25;102566.66;;;8.17;90.63
71043;BME280;58696;52.134;5.500;2023-05-24T04:58:52;102570.53;;;8.33;90.29
71043;BME280;58696;52.134;5.500;2023-05-24T05:01:19;102570.16;;;8.49;90.23
71043;BME280;58696;52.134;5.500;2023-05-24T05:03:45;102561.28;;;9.23;89.97
71043;BME280;58696;52.134;5.500;2023-05-24T05:06:12;102567.28;;;11.06;85.34
71043;BME280;58696;52.134;5.500;2023-05-24T05:08:39;102569.44;;;12.46;79.64
71043;BME280;58696;52.134;5.500;2023-05-24T05:11:07;102555.41;;;13.67;73.18
71043;BME280;58696;52.134;5.500;2023-05-24T05:13:36;102565.56;;;14.17;69.98
71043;BME280;58696;52.134;5.500;2023-05-24T05:16:05;102564.75;;;14.58;68.57
71043;BME280;58696;52.134;5.500;2023-05-24T05:18:34;102560.06;;;15.01;66.50
71043;BME280;58696;52.134;5.500;2023-05-24T05:21:03;102561.66;;;15.33;66.07
71043;BME280;58696;52.134;5.500;2023-05-24T05:23:32;102568.13;;;15.68;63.68
71043;BME280;58696;52.134;5.500;2023-05-24T05:26:01;102569.41;;;15.87;62.73
71043;BME280;58696;52.134;5.500;2023-05-24T05:28:27;102565.72;;;15.66;62.77
71043;BME280;58696;52.134;5.500;2023-05-24T05:30:56;102571.78;;;15.50;63.26
71043;BME280;58696;52.134;5.500;2023-05-24T05:33:26;102566.72;;;15.57;63.73
71043;BME280;58696;52.134;5.500;2023-05-24T05:35:53;102572.97;;;15.40;62.57
71043;BME280;58696;52.134;5.500;2023-05-24T05:38:22;102577.16;;;15.10;64.21
71043;BME280;58696;52.134;5.500;2023-05-24T05:40:49;102582.69;;;15.38;63.36
71043;BME280;58696;52.134;5.500;2023-05-24T05:43:18;102583.84;;;15.89;62.26
71043;BME280;58696;52.134;5.500;2023-05-24T05:45:44;102577.09;;;16.18;61.41
71043;BME280;58696;52.134;5.500;2023-05-24T05:48:15;102568.66;;;16.39;59.68
71043;BME280;58696;52.134;5.500;2023-05-24T05:50:42;102577.16;;;16.33;59.71
71043;BME280;58696;52.134;5.500;2023-05-24T05:53:09;102577.72;;;16.20;60.78
71043;BME280;58696;52.134;5.500;2023-05-24T05:55:40;102578.19;;;16.23;59.91
71043;BME280;58696;52.134;5.500;2023-05-24T05:58:14;102568.72;;;16.30;60.48
71043;BME280;58696;52.134;5.500;2023-05-24T06:00:43;102575.47;;;16.54;59.51
71043;BME280;58696;52.134;5.500;2023-05-24T06:03:12;102575.19;;;16.49;60.20
71043;BME280;58696;52.134;5.500;2023-05-24T06:05:41;102568.78;;;16.75;58.53
71043;BME280;58696;52.134;5.500;2023-05-24T06:08:09;102573.88;;;16.83;58.21
71043;BME280;58696;52.134;5.500;2023-05-24T06:10:38;102567.53;;;16.71;58.50
71043;BME280;58696;52.134;5.500;2023-05-24T06:13:08;102578.78;;;16.78;57.99
71043;BME280;58696;52.134;5.500;2023-05-24T06:15:39;102567.75;;;17.05;57.65
71043;BME280;58696;52.134;5.500;2023-05-24T06:18:06;102569.81;;;16.95;57.99
71043;BME280;58696;52.134;5.500;2023-05-24T06:20:39;102578.25;;;17.55;56.48
71043;BME280;58696;52.134;5.500;2023-05-24T06:23:09;102577.03;;;17.51;56.18
71043;BME280;58696;52.134;5.500;2023-05-24T06:25:35;102576.16;;;17.44;56.11
71043;BME280;58696;52.134;5.500;2023-05-24T06:28:08;102576.13;;;16.86;58.00
71043;BME280;58696;52.134;5.500;2023-05-24T06:30:35;102581.06;;;16.28;59.29
71043;BME280;58696;52.134;5.500;2023-05-24T06:33:04;102581.97;;;16.36;59.85
71043;BME280;58696;52.134;5.500;2023-05-24T06:35:31;102577.41;;;17.12;57.54
71043;BME280;58696;52.134;5.500;2023-05-24T06:37:58;102585.34;;;17.25;57.67
71043;BME280;58696;52.134;5.500;2023-05-24T06:40:24;102583.69;;;16.43;58.29
71043;BME280;58696;52.134;5.500;2023-05-24T06:42:51;102591.50;;;15.29;61.60
71043;BME280;58696;52.134;5.500;2023-05-24T06:45:17;102592.88;;;14.36;64.15
71043;BME280;58696;52.134;5.500;2023-05-24T06:47:49;102585.44;;;13.84;67.62
71043;BME280;58696;52.134;5.500;2023-05-24T06:50:21;102596.25;;;14.45;66.95
71043;BME280;58696;52.134;5.500;2023-05-24T06:52:50;102594.31;;;14.55;66.09
71043;BME280;58696;52.134;5.500;2023-05-24T06:55:21;102588.19;;;14.24;66.97
71043;BME280;58696;52.134;5.500;2023-05-24T06:57:48;102594.22;;;14.96;64.26
71043;BME280;58696;52.134;5.500;2023-05-24T07:00:15;102593.88;;;14.35;65.68
71043;BME280;58696;52.134;5.500;2023-05-24T07:02:42;102595.63;;;13.86;66.84
71043;BME280;58696;52.134;5.500;2023-05-24T07:05:14;102599.66;;;13.72;68.25
71043;BME280;58696;52.134;5.500;2023-05-24T07:07:44;102603.19;;;13.63;68.65
71043;BME280;58696;52.134;5.500;2023-05-24T07:10:11;102599.84;;;13.95;67.75
71043;BME280;58696;52.134;5.500;2023-05-24T07:12:40;102604.16;;;13.54;67.76
71043;BME280;58696;52.134;5.500;2023-05-24T07:15:09;102608.50;;;13.19;69.04
71043;BME280;58696;52.134;5.500;2023-05-24T07:17:36;102600.22;;;13.33;69.03
71043;BME280;58696;52.134;5.500;2023-05-24T07:20:03;102602.75;;;14.57;66.16
71043;BME280;58696;52.134;5.500;2023-05-24T07:22:37;102599.44;;;16.56;60.43
71043;BME280;58696;52.134;5.500;2023-05-24T07:25:08;102603.81;;;16.56;57.84
71043;BME280;58696;52.134;5.500;2023-05-24T07:27:35;102609.63;;;15.29;60.81
71043;BME280;58696;52.134;5.500;2023-05-24T07:30:04;102599.69;;;15.40;60.87
71043;BME280;58696;52.134;5.500;2023-05-24T07:32:44;102599.00;;;14.60;63.38
71043;BME280;58696;52.134;5.500;2023-05-24T07:35:11;102594.16;;;14.24;64.44
71043;BME280;58696;52.134;5.500;2023-05-24T07:37:41;102610.44;;;15.29;60.80
71043;BME280;58696;52.134;5.500;2023-05-24T07:40:08;102605.22;;;14.98;62.00
71043;BME280;58696;52.134;5.500;2023-05-24T07:42:38;102603.84;;;15.18;63.97
71043;BME280;58696;52.134;5.500;2023-05-24T07:45:08;102600.75;;;17.26;58.50
71043;BME280;58696;52.134;5.500;2023-05-24T07:47:37;102599.28;;;18.24;55.25
71043;BME280;58696;52.134;5.500;2023-05-24T07:50:07;102602.81;;;18.73;49.95
71043;BME280;58696;52.134;5.500;2023-05-24T07:52:34;102606.88;;;18.82;51.69
71043;BME280;58696;52.134;5.500;2023-05-24T07:55:03;102597.72;;;18.99;48.65
71043;BME280;58696;52.134;5.500;2023-05-24T07:57:29;102598.38;;;18.38;51.97
71043;BME280;58696;52.134;5.500;2023-05-24T07:59:58;102602.72;;;18.03;51.86
71043;BME280;58696;52.134;5.500;2023-05-24T08:02:30;102607.59;;;18.41;51.40
71043;BME280;58696;52.134;5.500;2023-05-24T08:04:57;102600.44;;;17.15;53.63
71043;BME280;58696;52.134;5.500;2023-05-24T08:07:23;102596.25;;;16.17;56.88
71043;BME280;58696;52.134;5.500;2023-05-24T08:09:54;102592.75;;;15.87;57.32
71043;BME280;58696;52.134;5.500;2023-05-24T08:12:20;102600.81;;;16.97;55.97
71043;BME280;58696;52.134;5.500;2023-05-24T08:14:47;102591.66;;;17.95;52.81
71043;BME280;58696;52.134;5.500;2023-05-24T08:17:13;102596.09;;;18.57;51.28
71043;BME280;58696;52.134;5.500;2023-05-24T08:19:42;102598.75;;;17.65;51.49
71043;BME280;58696;52.134;5.500;2023-05-24T08:22:12;102604.84;;;16.85;53.83
71043;BME280;58696;52.134;5.500;2023-05-24T08:24:38;102604.38;;;16.14;56.24
71043;BME280;58696;52.134;5.500;2023-05-24T08:27:05;102602.06;;;15.50;57.59
71043;BME280;58696;52.134;5.500;2023-05-24T08:29:35;102602.44;;;15.08;58.92
71043;BME280;58696;52.134;5.500;2023-05-24T08:32:02;102595.34;;;14.93;58.67
71043;BME280;58696;52.134;5.500;2023-05-24T08:34:29;102598.13;;;14.92;60.08
71043;BME280;58696;52.134;5.500;2023-05-24T08:36:56;102596.59;;;15.06;60.15
71043;BME280;58696;52.134;5.500;2023-05-24T08:39:25;102592.50;;;15.19;60.42
71043;BME280;58696;52.134;5.500;2023-05-24T08:41:52;102584.53;;;15.83;59.29
71043;BME280;58696;52.134;5.500;2023-05-24T08:44:46;102597.66;;;16.42;57.96
71043;BME280;58696;52.134;5.500;2023-05-24T08:47:14;102589.38;;;16.76;55.59
71043;BME280;58696;52.134;5.500;2023-05-24T08:49:43;102587.63;;;16.69;55.39
71043;BME280;58696;52.134;5.500;2023-05-24T08:52:11;102580.72;;;16.32;57.25
71043;BME280;58696;52.134;5.500;2023-05-24T08:54:39;102592.44;;;15.90;56.66
71043;BME280;58696;52.134;5.500;2023-05-24T08:57:09;102594.00;;;15.45;58.11
71043;BME280;58696;52.134;5.500;2023-05-24T08:59:40;102592.03;;;15.16;59.73
71043;BME280;58696;52.134;5.500;2023-05-24T09:02:10;102591.56;;;15.43;59.05
71043;BME280;58696;52.134;5.500;2023-05-24T09:04:40;102594.00;;;16.14;58.16
71043;BME280;58696;52.134;5.500;2023-05-24T09:07:09;102588.38;;;16.77;54.69
71043;BME280;58696;52.134;5.500;2023-05-24T09:09:45;102589.63;;;16.96;57.45
71043;BME280;58696;52.134;5.500;2023-05-24T09:12:15;102589.91;;;16.87;54.34
71043;BME280;58696;52.134;5.500;2023-05-24T09:15:04;102589.47;;;16.30;55.13
71043;BME280;58696;52.134;5.500;2023-05-24T09:17:34;102602.91;;;15.73;55.76
71043;BME280;58696;52.134;5.500;2023-05-24T09:20:05;102590.00;;;15.65;58.02
71043;BME280;58696;52.134;5.500;2023-05-24T09:22:36;102603.31;;;15.85;57.28
71043;BME280;58696;52.134;5.500;2023-05-24T09:25:12;102604.66;;;16.19;54.65
71043;BME280;58696;52.134;5.500;2023-05-24T09:27:45;102605.84;;;15.93;55.92
71043;BME280;58696;52.134;5.500;2023-05-24T09:30:14;102593.84;;;15.92;55.17
71043;BME280;58696;52.134;5.500;2023-05-24T09:32:54;102601.19;;;15.58;55.03
71043;BME280;58696;52.134;5.500;2023-05-24T09:35:21;102608.38;;;15.47;57.04
71043;BME280;58696;52.134;5.500;2023-05-24T09:37:48;102610.25;;;15.31;57.23
71043;BME280;58696;52.134;5.500;2023-05-24T09:40:18;102612.03;;;15.30;58.00
71043;BME280;58696;52.134;5.500;2023-05-24T09:42:46;102606.00;;;14.98;59.02
71043;BME280;58696;52.134;5.500;2023-05-24T09:45:15;102602.50;;;14.83;59.33
71043;BME280;58696;52.134;5.500;2023-05-24T09:47:45;102607.53;;;14.85;58.99
71043;BME280;58696;52.134;5.500;2023-05-24T09:50:13;102609.81;;;14.80;57.86
71043;BME280;58696;52.134;5.500;2023-05-24T09:52:43;102600.72;;;14.92;57.57
71043;BME280;58696;52.134;5.500;2023-05-24T09:55:19;102606.81;;;15.07;58.74
71043;BME280;58696;52.134;5.500;2023-05-24T09:58:00;102601.75;;;15.14;58.29
71043;BME280;58696;52.134;5.500;2023-05-24T10:00:32;102608.81;;;15.28;56.94
71043;BME280;58696;52.134;5.500;2023-05-24T10:03:04;102610.31;;;15.14;57.30
71043;BME280;58696;52.134;5.500;2023-05-24T10:05:35;102604.97;;;15.16;58.73
71043;BME280;58696;52.134;5.500;2023-05-24T10:08:02;102604.53;;;15.12;58.99
71043;BME280;58696;52.134;5.500;2023-05-24T10:10:32;102611.75;;;15.25;59.22
71043;BME280;58696;52.134;5.500;2023-05-24T10:13:02;102606.53;;;15.33;57.59
71043;BME280;58696;52.134;5.500;2023-05-24T10:15:29;102607.28;;;15.42;58.09
71043;BME280;58696;52.134;5.500;2023-05-24T10:17:56;102605.06;;;15.62;58.46
71043;BME280;58696;52.134;5.500;2023-05-24T10:20:23;102611.69;;;15.72;57.45
71043;BME280;58696;52.134;5.500;2023-05-24T10:22:56;102606.31;;;15.74;58.15
71043;BME280;58696;52.134;5.500;2023-05-24T10:25:26;102607.81;;;15.68;57.24
71043;BME280;58696;52.134;5.500;2023-05-24T10:27:57;102606.19;;;15.59;56.55
71043;BME280;58696;52.134;5.500;2023-05-24T10:33:03;102603.59;;;15.67;57.36
71043;BME280;58696;52.134;5.500;2023-05-24T10:35:39;102607.47;;;15.71;57.11
71043;BME280;58696;52.134;5.500;2023-05-24T10:38:07;102604.13;;;15.86;55.25
71043;BME280;58696;52.134;5.500;2023-05-24T10:40:42;102605.31;;;16.21;55.91
71043;BME280;58696;52.134;5.500;2023-05-24T10:43:09;102596.72;;;16.35;52.52
71043;BME280;58696;52.134;5.500;2023-05-24T10:45:38;102597.72;;;16.34;53.95
71043;BME280;58696;52.134;5.500;2023-05-24T10:50:43;102601.84;;;16.43;54.36
71043;BME280;58696;52.134;5.500;2023-05-24T10:53:17;102591.75;;;16.48;55.23
71043;BME280;58696;52.134;5.500;2023-05-24T10:55:54;102598.88;;;16.46;55.56
71043;BME280;58696;52.134;5.500;2023-05-24T11:01:29;102605.03;;;16.16;54.62
71043;BME280;58696;52.134;5.500;2023-05-24T11:04:16;102602.09;;;15.96;54.42
71043;BME280;58696;52.134;5.500;2023-05-24T11:07:05;102604.06;;;15.94;55.11
71043;BME280;58696;52.134;5.500;2023-05-24T11:09:38;102602.47;;;16.08;54.27
71043;BME280;58696;52.134;5.500;2023-05-24T11:12:18;102602.34;;;16.24;54.68
71043;BME280;58696;52.134;5.500;2023-05-24T11:14:50;102593.50;;;16.33;54.54
71043;BME280;58696;52.134;5.500;2023-05-24T11:17:22;102596.75;;;16.50;53.18
71043;BME280;58696;52.134;5.500;2023-05-24T11:19:53;102592.56;;;16.49;53.99
71043;BME280;58696;52.134;5.500;2023-05-24T11:22:23;102595.22;;;16.26;54.46
71043;BME280;58696;52.134;5.500;2023-05-24T11:24:51;102597.38;;;15.99;56.05
71043;BME280;58696;52.134;5.500;2023-05-24T11:27:19;102601.59;;;16.00;56.03
71043;BME280;58696;52.134;5.500;2023-05-24T11:29:46;102604.63;;;16.04;54.86
71043;BME280;58696;52.134;5.500;2023-05-24T11:32:17;102600.88;;;16.07;54.47
71043;BME280;58696;52.134;5.500;2023-05-24T11:34:51;102601.53;;;16.23;55.26
71043;BME280;58696;52.134;5.500;2023-05-24T11:37:17;102593.16;;;16.36;55.16
71043;BME280;58696;52.134;5.500;2023-05-24T11:39:49;102598.00;;;16.69;57.42
71043;BME280;58696;52.134;5.500;2023-05-24T11:42:17;102595.72;;;16.89;53.19
71043;BME280;58696;52.134;5.500;2023-05-24T11:44:47;102590.25;;;16.98;52.76
71043;BME280;58696;52.134;5.500;2023-05-24T11:47:13;102594.09;;;17.02;53.05
71043;BME280;58696;52.134;5.500;2023-05-24T11:49:48;102599.69;;;17.21;54.25
71043;BME280;58696;52.134;5.500;2023-05-24T11:52:17;102595.31;;;17.06;52.62
71043;BME280;58696;52.134;5.500;2023-05-24T11:54:44;102595.53;;;16.90;53.48
71043;BME280;58696;52.134;5.500;2023-05-24T11:57:11;102602.22;;;16.99;53.43
71043;BME280;58696;52.134;5.500;2023-05-24T11:59:41;102597.22;;;16.83;52.96
71043;BME280;58696;52.134;5.500;2023-05-24T12:02:10;102595.69;;;17.03;52.56
71043;BME280;58696;52.134;5.500;2023-05-24T12:04:39;102590.81;;;17.30;51.75
71043;BME280;58696;52.134;5.500;2023-05-24T12:07:09;102588.84;;;17.53;52.66
71043;BME280;58696;52.134;5.500;2023-05-24T12:09:36;102584.13;;;17.42;53.25
71043;BME280;58696;52.134;5.500;2023-05-24T12:12:04;102580.56;;;17.28;51.66
71043;BME280;58696;52.134;5.500;2023-05-24T12:14:33;102589.25;;;16.99;51.76
71043;BME280;58696;52.134;5.500;2023-05-24T12:17:01;102588.72;;;16.89;53.26
71043;BME280;58696;52.134;5.500;2023-05-24T12:19:33;102589.63;;;16.96;54.56
71043;BME280;58696;52.134;5.500;2023-05-24T12:22:05;102589.56;;;16.75;52.88
71043;BME280;58696;52.134;5.500;2023-05-24T12:24:36;102585.19;;;16.52;52.89
71043;BME280;58696;52.134;5.500;2023-05-24T12:27:03;102587.91;;;16.74;55.79
71043;BME280;58696;52.134;5.500;2023-05-24T12:29:35;102584.91;;;17.21;54.11
71043;BME280;58696;52.134;5.500;2023-05-24T12:32:06;102582.28;;;17.36;52.82
71043;BME280;58696;52.134;5.500;2023-05-24T12:34:43;102583.09;;;17.22;52.86
71043;BME280;58696;52.134;5.500;2023-05-24T12:37:13;102588.03;;;17.17;54.33
71043;BME280;58696;52.134;5.500;2023-05-24T12:39:43;102583.38;;;17.27;54.00
71043;BME280;58696;52.134;5.500;2023-05-24T12:42:14;102584.97;;;17.28;53.98
71043;BME280;58696;52.134;5.500;2023-05-24T12:44:41;102585.75;;;17.43;54.04
71043;BME280;58696;52.134;5.500;2023-05-24T12:47:10;102588.81;;;17.32;53.17
71043;BME280;58696;52.134;5.500;2023-05-24T12:49:37;102574.91;;;17.18;54.34
71043;BME280;58696;52.134;5.500;2023-05-24T12:52:04;102577.31;;;17.20;53.54
71043;BME280;58696;52.134;5.500;2023-05-24T12:54:32;102582.75;;;17.25;52.38
71043;BME280;58696;52.134;5.500;2023-05-24T12:56:59;102582.06;;;17.16;54.13
71043;BME280;58696;52.134;5.500;2023-05-24T12:59:30;102582.69;;;17.18;52.37
71043;BME280;58696;52.134;5.500;2023-05-24T13:01:59;102581.19;;;17.45;51.82
71043;BME280;58696;52.134;5.500;2023-05-24T13:04:28;102582.25;;;17.51;54.09
71043;BME280;58696;52.134;5.500;2023-05-24T13:06:57;102593.09;;;17.76;52.70
71043;BME280;58696;52.134;5.500;2023-05-24T13:09:23;102589.47;;;17.55;51.88
71043;BME280;58696;52.134;5.500;2023-05-24T13:11:52;102582.09;;;17.38;51.35
71043;BME280;58696;52.134;5.500;2023-05-24T13:14:21;102590.72;;;17.23;54.06
71043;BME280;58696;52.134;5.500;2023-05-24T13:16:48;102593.31;;;17.23;52.03
71043;BME280;58696;52.134;5.500;2023-05-24T13:19:20;102591.81;;;17.29;53.74
71043;BME280;58696;52.134;5.500;2023-05-24T13:21:49;102586.69;;;17.21;52.78